createdAt,value
2017-08-03T00:00:22.276Z,0
2017-08-03T00:01:22.550Z,0
2017-08-03T00:02:22.840Z,0
2017-08-03T00:03:23.132Z,0
2017-08-03T00:04:23.146Z,0
2017-08-03T00:05:22.801Z,0
2017-08-03T00:06:22.780Z,0
2017-08-03T00:07:22.765Z,0
2017-08-03T00:08:22.753Z,0
2017-08-03T00:09:22.741Z,0
2017-08-03T00:10:23.039Z,0
2017-08-03T00:11:22.710Z,0
2017-08-03T00:12:22.143Z,0
2017-08-03T00:13:22.070Z,0
2017-08-03T00:14:22.980Z,0
2017-08-03T00:15:22.960Z,0
2017-08-03T00:16:22.630Z,0
2017-08-03T00:17:22.950Z,0
2017-08-03T00:18:22.621Z,0
2017-08-03T00:19:22.915Z,0
2017-08-03T00:20:22.620Z,0
2017-08-03T00:21:22.691Z,0
2017-08-03T00:22:22.311Z,0
2017-08-03T00:23:22.550Z,0
2017-08-03T00:24:22.540Z,0
2017-08-03T00:25:22.509Z,0
2017-08-03T00:26:22.862Z,0
2017-08-03T00:27:22.510Z,0
2017-08-03T00:28:22.881Z,0
2017-08-03T00:29:22.780Z,0
2017-08-03T00:30:22.144Z,0
2017-08-03T00:31:22.733Z,0
2017-08-03T00:32:22.443Z,0
2017-08-03T00:33:22.399Z,0
2017-08-03T00:34:21.762Z,0
2017-08-03T00:35:22.766Z,0
2017-08-03T00:36:22.721Z,0
2017-08-03T00:37:22.025Z,0
2017-08-03T00:38:22.652Z,0
2017-08-03T00:39:22.394Z,0
2017-08-03T00:40:22.673Z,0
2017-08-03T00:41:22.354Z,0
2017-08-03T00:42:22.583Z,0
2017-08-03T00:43:22.315Z,0
2017-08-03T00:44:22.310Z,0
2017-08-03T00:45:21.934Z,0
2017-08-03T00:46:21.910Z,0
2017-08-03T00:47:22.210Z,0
2017-08-03T00:48:22.239Z,0
2017-08-03T00:49:22.191Z,0
2017-08-03T00:50:21.861Z,0
2017-08-03T00:51:22.150Z,0
2017-08-03T00:52:22.448Z,0
2017-08-03T00:53:21.802Z,0
2017-08-03T00:54:22.487Z,0
2017-08-03T00:55:22.102Z,0
2017-08-03T00:56:22.080Z,0
2017-08-03T00:57:22.480Z,0
2017-08-03T00:58:22.047Z,0
2017-08-03T00:59:22.049Z,0
2017-08-03T01:00:21.723Z,0
2017-08-03T01:01:21.992Z,0
2017-08-03T01:02:21.980Z,0
2017-08-03T01:03:21.667Z,0
2017-08-03T01:04:22.260Z,0
2017-08-03T01:05:21.950Z,0
2017-08-03T01:06:21.920Z,0
2017-08-03T01:07:21.606Z,0
2017-08-03T01:08:21.618Z,0
2017-08-03T01:09:22.190Z,0
2017-08-03T01:10:22.192Z,0
2017-08-03T01:11:21.847Z,0
2017-08-03T01:12:21.859Z,0
2017-08-03T01:13:21.518Z,0
2017-08-03T01:14:21.811Z,0
2017-08-03T01:15:21.811Z,0
2017-08-03T01:16:21.481Z,0
2017-08-03T01:17:21.770Z,0
2017-08-03T01:18:22.090Z,0
2017-08-03T01:19:21.744Z,0
2017-08-03T01:20:21.736Z,0
2017-08-03T01:21:21.723Z,0
2017-08-03T01:22:21.701Z,0
2017-08-03T01:23:21.992Z,0
2017-08-03T01:24:21.661Z,0
2017-08-03T01:25:21.661Z,0
2017-08-03T01:26:21.642Z,0
2017-08-03T01:27:21.626Z,0
2017-08-03T01:28:21.627Z,0
2017-08-03T01:29:21.303Z,0
2017-08-03T01:30:21.272Z,0
2017-08-03T01:31:21.885Z,0
2017-08-03T01:32:21.868Z,0
2017-08-03T01:33:21.551Z,0
2017-08-03T01:34:21.521Z,0
2017-08-03T01:35:21.827Z,0
2017-08-03T01:36:21.511Z,0
2017-08-03T01:37:21.195Z,0
2017-08-03T01:38:21.774Z,0
2017-08-03T01:39:21.760Z,0
2017-08-03T01:40:21.751Z,0
2017-08-03T01:41:21.727Z,0
2017-08-03T01:42:21.717Z,0
2017-08-03T01:43:21.696Z,0
2017-08-03T01:44:21.693Z,0
2017-08-03T01:45:21.671Z,0
2017-08-03T01:46:21.657Z,0
2017-08-03T01:47:21.648Z,0
2017-08-03T01:48:21.331Z,0
2017-08-03T01:49:21.609Z,0
2017-08-03T01:50:21.303Z,0
2017-08-03T01:51:21.302Z,0
2017-08-03T01:52:21.571Z,0
2017-08-03T01:53:21.556Z,0
2017-08-03T01:54:21.549Z,0
2017-08-03T01:55:21.229Z,0
2017-08-03T01:56:21.200Z,0
2017-08-03T01:57:20.919Z,0
2017-08-03T01:58:21.180Z,0
2017-08-03T01:59:21.476Z,0
2017-08-03T02:00:21.461Z,0
2017-08-03T02:01:21.480Z,0
2017-08-03T02:02:20.799Z,0
2017-08-03T02:03:21.541Z,0
2017-08-03T02:04:20.470Z,0
2017-08-03T02:05:20.460Z,0
2017-08-03T02:06:21.409Z,0
2017-08-03T02:07:21.482Z,0
2017-08-03T02:08:21.352Z,0
2017-08-03T02:09:20.800Z,0
2017-08-03T02:10:20.999Z,0
2017-08-03T02:11:20.979Z,0
2017-08-03T02:12:21.040Z,0
2017-08-03T02:13:20.353Z,0
2017-08-03T02:14:20.972Z,0
2017-08-03T02:15:21.244Z,0
2017-08-03T02:16:20.603Z,0
2017-08-03T02:17:21.221Z,0
2017-08-03T02:18:20.970Z,0
2017-08-03T02:19:21.198Z,0
2017-08-03T02:20:20.557Z,0
2017-08-03T02:21:21.279Z,0
2017-08-03T02:22:20.830Z,0
2017-08-03T02:23:21.229Z,0
2017-08-03T02:24:21.101Z,0
2017-08-03T02:25:21.095Z,0
2017-08-03T02:26:20.481Z,0
2017-08-03T02:27:21.150Z,0
2017-08-03T02:28:20.460Z,0
2017-08-03T02:29:21.051Z,0
2017-08-03T02:30:21.061Z,0
2017-08-03T02:31:20.690Z,0
2017-08-03T02:32:21.073Z,0
2017-08-03T02:33:20.976Z,0
2017-08-03T02:34:20.657Z,0
2017-08-03T02:35:20.947Z,0
2017-08-03T02:36:21.061Z,0
2017-08-03T02:37:20.611Z,0
2017-08-03T02:38:20.581Z,0
2017-08-03T02:39:19.970Z,0
2017-08-03T02:40:20.240Z,0
2017-08-03T02:41:19.931Z,0
2017-08-03T02:42:20.833Z,0
2017-08-03T02:43:20.525Z,0
2017-08-03T02:44:20.499Z,0
2017-08-03T02:45:20.561Z,0
2017-08-03T02:46:20.469Z,0
2017-08-03T02:47:20.451Z,0
2017-08-03T02:48:20.740Z,0
2017-08-03T02:49:20.197Z,0
2017-08-03T02:50:20.405Z,0
2017-08-03T02:51:20.393Z,0
2017-08-03T02:52:20.391Z,0
2017-08-03T02:53:20.739Z,0
2017-08-03T02:54:20.362Z,0
2017-08-03T02:55:20.640Z,0
2017-08-03T02:56:20.636Z,0
2017-08-03T02:57:20.331Z,0
2017-08-03T02:58:20.631Z,0
2017-08-03T02:59:20.587Z,0
2017-08-03T03:00:20.272Z,0
2017-08-03T03:01:20.569Z,0
2017-08-03T03:02:20.225Z,0
2017-08-03T03:03:20.558Z,0
2017-08-03T03:04:20.510Z,0
2017-08-03T03:05:20.202Z,0
2017-08-03T03:06:20.187Z,0
2017-08-03T03:07:20.460Z,0
2017-08-03T03:08:20.156Z,0
2017-08-03T03:09:20.440Z,0
2017-08-03T03:10:20.436Z,0
2017-08-03T03:11:20.421Z,0
2017-08-03T03:12:19.796Z,0
2017-08-03T03:13:19.776Z,0
2017-08-03T03:14:20.073Z,0
2017-08-03T03:15:20.050Z,0
2017-08-03T03:16:20.335Z,0
2017-08-03T03:17:20.012Z,0
2017-08-03T03:18:19.695Z,0
2017-08-03T03:19:19.980Z,0
2017-08-03T03:20:19.360Z,0
2017-08-03T03:21:19.949Z,0
2017-08-03T03:22:20.028Z,0
2017-08-03T03:23:19.939Z,0
2017-08-03T03:24:19.614Z,0
2017-08-03T03:25:19.901Z,0
2017-08-03T03:26:19.572Z,0
2017-08-03T03:27:19.559Z,0
2017-08-03T03:28:19.847Z,0
2017-08-03T03:29:19.840Z,0
2017-08-03T03:30:19.520Z,0
2017-08-03T03:31:19.812Z,0
2017-08-03T03:32:19.846Z,0
2017-08-03T03:33:19.778Z,4
2017-08-03T03:34:19.143Z,4
2017-08-03T03:35:20.071Z,4
2017-08-03T03:36:19.723Z,4
2017-08-03T03:37:19.430Z,0
2017-08-03T03:38:19.717Z,4
2017-08-03T03:39:19.700Z,4
2017-08-03T03:40:19.670Z,4
2017-08-03T03:41:19.667Z,8
2017-08-03T03:42:19.639Z,8
2017-08-03T03:43:19.637Z,8
2017-08-03T03:44:19.621Z,8
2017-08-03T03:45:19.592Z,4
2017-08-03T03:46:19.594Z,4
2017-08-03T03:47:19.577Z,8
2017-08-03T03:48:19.860Z,8
2017-08-03T03:49:19.540Z,8
2017-08-03T03:50:19.833Z,12
2017-08-03T03:51:19.200Z,12
2017-08-03T03:52:19.914Z,12
2017-08-03T03:53:19.805Z,12
2017-08-03T03:54:19.781Z,12
2017-08-03T03:55:19.460Z,12
2017-08-03T03:56:19.149Z,12
2017-08-03T03:57:19.411Z,16
2017-08-03T03:58:19.500Z,16
2017-08-03T03:59:19.102Z,16
2017-08-03T04:00:19.733Z,16
2017-08-03T04:01:19.380Z,20
2017-08-03T04:02:19.361Z,20
2017-08-03T04:03:19.331Z,20
2017-08-03T04:04:18.999Z,24
2017-08-03T04:05:19.290Z,20
2017-08-03T04:06:19.342Z,28
2017-08-03T04:07:18.981Z,24
2017-08-03T04:08:19.570Z,28
2017-08-03T04:09:19.250Z,36
2017-08-03T04:10:19.312Z,36
2017-08-03T04:11:19.353Z,40
2017-08-03T04:12:19.270Z,44
2017-08-03T04:13:19.240Z,48
2017-08-03T04:14:19.218Z,44
2017-08-03T04:15:19.562Z,44
2017-08-03T04:16:18.612Z,44
2017-08-03T04:17:19.143Z,48
2017-08-03T04:18:19.443Z,48
2017-08-03T04:19:19.443Z,52
2017-08-03T04:20:19.400Z,52
2017-08-03T04:21:19.398Z,52
2017-08-03T04:22:19.045Z,56
2017-08-03T04:23:19.379Z,60
2017-08-03T04:24:19.351Z,64
2017-08-03T04:25:19.310Z,72
2017-08-03T04:26:19.310Z,80
2017-08-03T04:27:19.310Z,84
2017-08-03T04:28:18.967Z,84
2017-08-03T04:29:18.757Z,88
2017-08-03T04:30:19.225Z,84
2017-08-03T04:31:18.920Z,80
2017-08-03T04:32:19.226Z,76
2017-08-03T04:33:19.208Z,72
2017-08-03T04:34:19.171Z,72
2017-08-03T04:35:19.181Z,72
2017-08-03T04:36:19.153Z,76
2017-08-03T04:37:18.829Z,84
2017-08-03T04:38:18.829Z,92
2017-08-03T04:39:18.809Z,96
2017-08-03T04:40:19.091Z,104
2017-08-03T04:41:19.109Z,104
2017-08-03T04:42:18.771Z,108
2017-08-03T04:43:19.070Z,104
2017-08-03T04:44:18.717Z,100
2017-08-03T04:45:19.021Z,100
2017-08-03T04:46:19.103Z,104
2017-08-03T04:47:18.479Z,112
2017-08-03T04:48:18.670Z,124
2017-08-03T04:49:18.646Z,136
2017-08-03T04:50:18.336Z,144
2017-08-03T04:51:18.622Z,156
2017-08-03T04:52:18.442Z,164
2017-08-03T04:53:18.590Z,184
2017-08-03T04:54:18.578Z,208
2017-08-03T04:55:18.637Z,232
2017-08-03T04:56:18.590Z,264
2017-08-03T04:57:18.241Z,292
2017-08-03T04:58:18.830Z,324
2017-08-03T04:59:18.530Z,352
2017-08-03T05:00:18.490Z,384
2017-08-03T05:01:18.805Z,408
2017-08-03T05:02:18.217Z,440
2017-08-03T05:03:18.453Z,472
2017-08-03T05:04:18.434Z,512
2017-08-03T05:05:18.741Z,552
2017-08-03T05:06:18.732Z,584
2017-08-03T05:07:18.085Z,612
2017-08-03T05:08:18.382Z,632
2017-08-03T05:09:18.075Z,640
2017-08-03T05:10:18.060Z,640
2017-08-03T05:11:18.343Z,676
2017-08-03T05:12:18.042Z,724
2017-08-03T05:13:18.012Z,796
2017-08-03T05:14:18.290Z,816
2017-08-03T05:15:18.585Z,812
2017-08-03T05:16:17.981Z,800
2017-08-03T05:17:17.941Z,796
2017-08-03T05:18:17.950Z,788
2017-08-03T05:19:18.330Z,776
2017-08-03T05:20:18.519Z,756
2017-08-03T05:21:18.499Z,740
2017-08-03T05:22:18.500Z,736
2017-08-03T05:23:18.489Z,756
2017-08-03T05:24:18.155Z,804
2017-08-03T05:25:17.831Z,932
2017-08-03T05:26:17.841Z,1104
2017-08-03T05:27:18.190Z,1348
2017-08-03T05:28:18.100Z,1652
2017-08-03T05:29:18.190Z,1960
2017-08-03T05:30:18.071Z,2252
2017-08-03T05:31:18.171Z,2448
2017-08-03T05:32:18.032Z,2456
2017-08-03T05:33:18.380Z,2424
2017-08-03T05:34:17.713Z,2440
2017-08-03T05:35:18.028Z,2528
2017-08-03T05:36:17.992Z,2856
2017-08-03T05:37:18.340Z,2948
2017-08-03T05:38:17.660Z,2908
2017-08-03T05:39:17.957Z,2504
2017-08-03T05:40:17.950Z,2320
2017-08-03T05:41:17.310Z,2248
2017-08-03T05:42:17.902Z,2340
2017-08-03T05:43:17.901Z,2440
2017-08-03T05:44:17.905Z,2496
2017-08-03T05:45:18.171Z,2516
2017-08-03T05:46:18.171Z,2644
2017-08-03T05:47:18.142Z,2920
2017-08-03T05:48:17.225Z,3160
2017-08-03T05:49:17.520Z,3360
2017-08-03T05:50:18.165Z,3508
2017-08-03T05:51:18.122Z,3488
2017-08-03T05:52:18.172Z,3468
2017-08-03T05:53:18.152Z,3316
2017-08-03T05:54:18.073Z,3016
2017-08-03T05:55:18.092Z,2680
2017-08-03T05:56:18.012Z,2272
2017-08-03T05:57:17.713Z,1792
2017-08-03T05:58:17.691Z,1608
2017-08-03T05:59:17.731Z,1396
2017-08-03T06:00:17.951Z,1264
2017-08-03T06:01:17.642Z,1184
2017-08-03T06:02:17.923Z,1120
2017-08-03T06:03:17.613Z,1084
2017-08-03T06:04:17.284Z,1076
2017-08-03T06:05:17.881Z,1084
2017-08-03T06:06:17.864Z,1096
2017-08-03T06:07:17.305Z,1132
2017-08-03T06:08:17.295Z,1200
2017-08-03T06:09:17.218Z,1296
2017-08-03T06:10:17.532Z,1440
2017-08-03T06:11:17.487Z,1568
2017-08-03T06:12:17.503Z,1644
2017-08-03T06:13:17.164Z,1700
2017-08-03T06:14:17.772Z,1696
2017-08-03T06:15:17.764Z,1604
2017-08-03T06:16:17.422Z,1544
2017-08-03T06:17:16.794Z,1580
2017-08-03T06:18:17.393Z,1716
2017-08-03T06:19:17.069Z,1844
2017-08-03T06:20:17.056Z,1904
2017-08-03T06:21:17.667Z,1860
2017-08-03T06:22:17.540Z,1760
2017-08-03T06:23:17.033Z,1748
2017-08-03T06:24:17.305Z,1788
2017-08-03T06:25:17.296Z,1776
2017-08-03T06:26:17.414Z,1740
2017-08-03T06:27:17.264Z,1592
2017-08-03T06:28:17.372Z,1448
2017-08-03T06:29:16.924Z,1360
2017-08-03T06:30:17.223Z,1320
2017-08-03T06:31:17.503Z,1308
2017-08-03T06:32:17.183Z,1396
2017-08-03T06:33:16.880Z,1508
2017-08-03T06:34:17.164Z,1448
2017-08-03T06:35:17.163Z,1320
2017-08-03T06:36:16.934Z,1164
2017-08-03T06:37:17.213Z,1056
2017-08-03T06:38:16.830Z,976
2017-08-03T06:39:17.094Z,932
2017-08-03T06:40:17.073Z,908
2017-08-03T06:41:17.368Z,920
2017-08-03T06:42:17.066Z,944
2017-08-03T06:43:16.762Z,960
2017-08-03T06:44:17.073Z,948
2017-08-03T06:45:16.744Z,920
2017-08-03T06:46:16.987Z,908
2017-08-03T06:47:17.061Z,904
2017-08-03T06:48:16.972Z,908
2017-08-03T06:49:16.964Z,964
2017-08-03T06:50:16.946Z,1028
2017-08-03T06:51:17.025Z,1064
2017-08-03T06:52:16.906Z,1084
2017-08-03T06:53:16.894Z,1096
2017-08-03T06:54:16.981Z,1152
2017-08-03T06:55:16.861Z,1348
2017-08-03T06:56:16.957Z,1564
2017-08-03T06:57:17.157Z,1716
2017-08-03T06:58:17.138Z,1952
2017-08-03T06:59:17.108Z,2172
2017-08-03T07:00:16.848Z,2324
2017-08-03T07:01:16.864Z,2360
2017-08-03T07:02:17.105Z,2452
2017-08-03T07:03:16.771Z,2524
2017-08-03T07:04:16.816Z,2564
2017-08-03T07:05:17.182Z,2600
2017-08-03T07:06:16.805Z,2380
2017-08-03T07:07:17.048Z,2064
2017-08-03T07:08:17.013Z,1992
2017-08-03T07:09:17.064Z,2052
2017-08-03T07:10:16.977Z,2136
2017-08-03T07:11:16.955Z,2312
2017-08-03T07:12:16.315Z,2468
2017-08-03T07:13:16.676Z,2608
2017-08-03T07:14:17.009Z,2688
2017-08-03T07:15:16.899Z,2752
2017-08-03T07:16:16.933Z,2900
2017-08-03T07:17:16.269Z,3120
2017-08-03T07:18:16.862Z,3692
2017-08-03T07:19:16.855Z,4296
2017-08-03T07:20:16.237Z,4784
2017-08-03T07:21:16.873Z,5548
2017-08-03T07:22:16.893Z,7368
2017-08-03T07:23:16.888Z,7852
2017-08-03T07:24:16.484Z,7848
2017-08-03T07:25:16.841Z,7340
2017-08-03T07:26:16.827Z,6716
2017-08-03T07:27:16.143Z,6788
2017-08-03T07:28:16.800Z,7484
2017-08-03T07:29:16.115Z,8488
2017-08-03T07:30:16.811Z,9548
2017-08-03T07:31:16.395Z,10060
2017-08-03T07:32:16.386Z,9924
2017-08-03T07:33:16.355Z,8892
2017-08-03T07:34:16.718Z,10048
2017-08-03T07:35:16.650Z,10144
2017-08-03T07:36:16.352Z,8668
2017-08-03T07:37:16.329Z,7640
2017-08-03T07:38:16.002Z,7488
2017-08-03T07:39:15.981Z,8048
2017-08-03T07:40:16.285Z,9220
2017-08-03T07:41:16.268Z,10520
2017-08-03T07:42:16.565Z,11664
2017-08-03T07:43:16.239Z,11236
2017-08-03T07:44:16.253Z,10632
2017-08-03T07:45:16.546Z,9180
2017-08-03T07:46:16.214Z,8496
2017-08-03T07:47:16.194Z,8660
2017-08-03T07:48:16.495Z,8784
2017-08-03T07:49:16.175Z,8784
2017-08-03T07:50:16.156Z,9148
2017-08-03T07:51:15.534Z,10720
2017-08-03T07:52:16.447Z,12912
2017-08-03T07:53:16.445Z,11912
2017-08-03T07:54:16.413Z,13520
2017-08-03T07:55:15.803Z,13652
2017-08-03T07:56:16.413Z,12848
2017-08-03T07:57:16.400Z,15780
2017-08-03T07:58:15.773Z,9828
2017-08-03T07:59:16.071Z,9256
2017-08-03T08:00:16.361Z,14572
2017-08-03T08:01:16.336Z,27232
2017-08-03T08:02:16.341Z,41408
2017-08-03T08:03:16.339Z,60992
2017-08-03T08:04:16.018Z,20832
2017-08-03T08:05:16.307Z,46784
2017-08-03T08:06:16.301Z,64768
2017-08-03T08:07:15.990Z,99168
2017-08-03T08:08:15.959Z,107424
2017-08-03T08:09:16.307Z,115232
2017-08-03T08:10:15.679Z,109280
2017-08-03T08:11:16.242Z,101408
2017-08-03T08:12:16.227Z,81184
2017-08-03T08:13:16.231Z,86048
2017-08-03T08:14:15.901Z,61728
2017-08-03T08:15:15.720Z,26144
2017-08-03T08:16:15.898Z,26688
2017-08-03T08:17:15.909Z,14044
2017-08-03T08:18:16.199Z,112416
2017-08-03T08:19:15.989Z,20032
2017-08-03T08:20:15.852Z,20192
2017-08-03T08:21:16.168Z,28128
2017-08-03T08:22:15.866Z,14568
2017-08-03T08:23:15.630Z,14064
2017-08-03T08:24:15.834Z,11508
2017-08-03T08:25:15.829Z,10056
2017-08-03T08:26:16.112Z,10116
2017-08-03T08:27:15.862Z,9372
2017-08-03T08:28:15.481Z,8836
2017-08-03T08:29:15.808Z,7948
2017-08-03T08:30:15.791Z,6420
2017-08-03T08:31:15.449Z,5288
2017-08-03T08:32:16.071Z,4748
2017-08-03T08:33:16.063Z,4924
2017-08-03T08:34:15.740Z,5524
2017-08-03T08:35:16.038Z,6108
2017-08-03T08:36:15.750Z,6360
2017-08-03T08:37:15.721Z,6316
2017-08-03T08:38:15.713Z,6372
2017-08-03T08:39:15.706Z,6232
2017-08-03T08:40:15.790Z,5972
2017-08-03T08:41:15.682Z,5936
2017-08-03T08:42:15.688Z,5988
2017-08-03T08:43:15.349Z,6276
2017-08-03T08:44:15.426Z,6616
2017-08-03T08:45:15.950Z,6408
2017-08-03T08:46:15.611Z,6500
2017-08-03T08:47:15.311Z,5912
2017-08-03T08:48:15.588Z,5992
2017-08-03T08:49:14.989Z,5336
2017-08-03T08:50:15.869Z,4868
2017-08-03T08:51:15.858Z,4780
2017-08-03T08:52:15.548Z,4924
2017-08-03T08:53:15.549Z,5284
2017-08-03T08:54:15.548Z,5320
2017-08-03T08:55:15.518Z,5136
2017-08-03T08:56:15.819Z,5288
2017-08-03T08:57:15.509Z,5644
2017-08-03T08:58:15.492Z,6212
2017-08-03T08:59:15.154Z,6536
2017-08-03T09:00:15.777Z,6448
2017-08-03T09:01:15.770Z,6244
2017-08-03T09:02:15.143Z,6804
2017-08-03T09:03:15.449Z,4788
2017-08-03T09:04:15.114Z,4300
2017-08-03T09:05:15.509Z,3812
2017-08-03T09:06:15.797Z,3396
2017-08-03T09:07:15.389Z,3408
2017-08-03T09:08:15.686Z,3236
2017-08-03T09:09:15.398Z,2928
2017-08-03T09:10:15.678Z,2636
2017-08-03T09:11:15.708Z,2652
2017-08-03T09:12:15.341Z,2836
2017-08-03T09:13:15.079Z,3508
2017-08-03T09:14:15.188Z,3800
2017-08-03T09:15:15.324Z,3920
2017-08-03T09:16:15.644Z,4244
2017-08-03T09:17:15.293Z,4688
2017-08-03T09:18:15.329Z,5672
2017-08-03T09:19:15.590Z,19264
2017-08-03T09:20:15.611Z,18816
2017-08-03T09:21:15.564Z,14352
2017-08-03T09:22:15.532Z,52864
2017-08-03T09:23:15.212Z,66272
2017-08-03T09:24:15.518Z,63808
2017-08-03T09:25:15.500Z,53120
2017-08-03T09:26:15.498Z,99040
2017-08-03T09:27:15.478Z,100352
2017-08-03T09:28:14.840Z,85984
2017-08-03T09:29:15.148Z,35136
2017-08-03T09:30:14.833Z,38784
2017-08-03T09:31:15.138Z,31520
2017-08-03T09:32:15.138Z,34656
2017-08-03T09:33:15.418Z,86720
2017-08-03T09:34:15.108Z,81280
2017-08-03T09:35:15.419Z,49152
2017-08-03T09:36:15.397Z,61248
2017-08-03T09:37:15.412Z,63168
2017-08-03T09:38:15.106Z,85696
2017-08-03T09:39:15.388Z,78912
2017-08-03T09:40:15.378Z,62464
2017-08-03T09:41:15.379Z,31264
2017-08-03T09:42:15.372Z,22240
2017-08-03T09:43:15.370Z,18976
2017-08-03T09:44:15.068Z,23040
2017-08-03T09:45:14.809Z,34880
2017-08-03T09:46:15.039Z,28640
2017-08-03T09:47:15.348Z,26912
2017-08-03T09:48:15.344Z,24608
2017-08-03T09:49:15.428Z,21344
2017-08-03T09:50:14.711Z,19136
2017-08-03T09:51:15.010Z,20320
2017-08-03T09:52:15.117Z,24352
2017-08-03T09:53:14.678Z,9728
2017-08-03T09:54:14.670Z,7968
2017-08-03T09:55:14.985Z,7524
2017-08-03T09:56:14.978Z,7844
2017-08-03T09:57:14.968Z,7772
2017-08-03T09:58:15.297Z,8656
2017-08-03T09:59:14.941Z,12172
2017-08-03T10:00:15.000Z,65984
2017-08-03T10:01:14.657Z,19200
2017-08-03T10:02:14.919Z,16544
2017-08-03T10:03:14.669Z,16608
2017-08-03T10:04:14.598Z,28576
2017-08-03T10:05:14.583Z,15520
2017-08-03T10:06:14.886Z,14884
2017-08-03T10:07:14.917Z,16352
2017-08-03T10:08:14.870Z,16128
2017-08-03T10:09:15.208Z,20992
2017-08-03T10:10:14.867Z,21504
2017-08-03T10:11:15.199Z,19072
2017-08-03T10:12:14.564Z,19008
2017-08-03T10:13:15.157Z,16352
2017-08-03T10:14:15.127Z,13008
2017-08-03T10:15:14.823Z,11144
2017-08-03T10:16:14.499Z,8616
2017-08-03T10:17:14.826Z,6844
2017-08-03T10:18:14.786Z,5184
2017-08-03T10:19:14.788Z,5212
2017-08-03T10:20:15.087Z,5468
2017-08-03T10:21:14.469Z,6136
2017-08-03T10:22:14.458Z,5564
2017-08-03T10:23:14.785Z,6424
2017-08-03T10:24:15.041Z,5988
2017-08-03T10:25:14.432Z,5612
2017-08-03T10:26:14.421Z,6540
2017-08-03T10:27:15.018Z,7816
2017-08-03T10:28:14.417Z,9580
2017-08-03T10:29:15.011Z,12116
2017-08-03T10:30:14.749Z,11500
2017-08-03T10:31:14.417Z,9780
2017-08-03T10:32:15.112Z,8640
2017-08-03T10:33:14.679Z,9476
2017-08-03T10:34:14.657Z,10668
2017-08-03T10:35:14.949Z,10976
2017-08-03T10:36:15.047Z,12092
2017-08-03T10:37:14.617Z,12068
2017-08-03T10:38:14.629Z,11876
2017-08-03T10:39:14.908Z,14004
2017-08-03T10:40:14.949Z,14256
2017-08-03T10:41:14.968Z,14056
2017-08-03T10:42:14.908Z,14344
2017-08-03T10:43:14.969Z,11836
2017-08-03T10:44:14.938Z,10428
2017-08-03T10:45:14.878Z,8208
2017-08-03T10:46:14.538Z,7572
2017-08-03T10:47:14.837Z,6100
2017-08-03T10:48:14.820Z,4356
2017-08-03T10:49:14.542Z,3768
2017-08-03T10:50:14.927Z,3112
2017-08-03T10:51:14.500Z,2980
2017-08-03T10:52:14.490Z,3100
2017-08-03T10:53:14.488Z,3588
2017-08-03T10:54:14.471Z,3524
2017-08-03T10:55:14.750Z,3300
2017-08-03T10:56:14.443Z,2540
2017-08-03T10:57:14.790Z,2228
2017-08-03T10:58:14.736Z,2100
2017-08-03T10:59:14.781Z,1440
2017-08-03T11:00:14.413Z,1116
2017-08-03T11:01:14.700Z,1208
2017-08-03T11:02:14.381Z,1420
2017-08-03T11:03:14.379Z,1492
2017-08-03T11:04:14.670Z,1440
2017-08-03T11:05:14.647Z,1300
2017-08-03T11:06:14.334Z,1300
2017-08-03T11:07:14.341Z,1524
2017-08-03T11:08:14.640Z,1376
2017-08-03T11:09:14.608Z,1508
2017-08-03T11:10:14.602Z,1644
2017-08-03T11:11:14.582Z,1612
2017-08-03T11:12:14.581Z,1408
2017-08-03T11:13:14.283Z,1624
2017-08-03T11:14:14.261Z,1808
2017-08-03T11:15:14.568Z,1920
2017-08-03T11:16:14.551Z,2024
2017-08-03T11:17:14.512Z,1784
2017-08-03T11:18:14.500Z,1608
2017-08-03T11:19:14.503Z,1252
2017-08-03T11:20:14.500Z,1336
2017-08-03T11:21:14.484Z,1256
2017-08-03T11:22:14.483Z,1284
2017-08-03T11:23:14.484Z,1436
2017-08-03T11:24:14.466Z,1536
2017-08-03T11:25:14.444Z,1420
2017-08-03T11:26:14.442Z,1196
2017-08-03T11:27:14.530Z,1192
2017-08-03T11:28:14.411Z,1404
2017-08-03T11:29:14.411Z,1748
2017-08-03T11:30:14.371Z,2116
2017-08-03T11:31:14.360Z,2484
2017-08-03T11:32:14.368Z,2468
2017-08-03T11:33:14.371Z,1916
2017-08-03T11:34:14.029Z,1748
2017-08-03T11:35:14.020Z,2064
2017-08-03T11:36:14.301Z,2712
2017-08-03T11:37:14.031Z,2388
2017-08-03T11:38:14.281Z,3084
2017-08-03T11:39:14.278Z,3648
2017-08-03T11:40:13.952Z,3584
2017-08-03T11:41:14.355Z,3488
2017-08-03T11:42:13.941Z,3016
2017-08-03T11:43:14.021Z,2844
2017-08-03T11:44:13.957Z,2644
2017-08-03T11:45:14.199Z,3288
2017-08-03T11:46:14.189Z,3092
2017-08-03T11:47:14.224Z,2984
2017-08-03T11:48:13.854Z,2480
2017-08-03T11:49:13.886Z,2100
2017-08-03T11:50:14.202Z,2296
2017-08-03T11:51:13.829Z,2404
2017-08-03T11:52:14.131Z,2780
2017-08-03T11:53:14.110Z,2916
2017-08-03T11:54:13.790Z,2520
2017-08-03T11:55:14.100Z,2096
2017-08-03T11:56:13.460Z,2752
2017-08-03T11:57:13.761Z,3528
2017-08-03T11:58:13.779Z,3268
2017-08-03T11:59:14.020Z,3492
2017-08-03T12:00:14.029Z,4168
2017-08-03T12:01:14.011Z,4696
2017-08-03T12:02:13.680Z,4988
2017-08-03T12:03:13.981Z,5532
2017-08-03T12:04:13.667Z,5856
2017-08-03T12:05:13.407Z,5484
2017-08-03T12:06:13.970Z,6032
2017-08-03T12:07:13.951Z,7564
2017-08-03T12:08:13.931Z,8916
2017-08-03T12:09:13.603Z,10592
2017-08-03T12:10:13.901Z,12420
2017-08-03T12:11:13.387Z,10256
2017-08-03T12:12:13.670Z,7228
2017-08-03T12:13:13.861Z,8940
2017-08-03T12:14:13.262Z,8808
2017-08-03T12:15:13.520Z,8692
2017-08-03T12:16:13.838Z,8596
2017-08-03T12:17:13.825Z,8888
2017-08-03T12:18:13.501Z,8068
2017-08-03T12:19:13.800Z,6864
2017-08-03T12:20:13.180Z,8176
2017-08-03T12:21:13.251Z,12712
2017-08-03T12:22:12.849Z,9692
2017-08-03T12:23:13.500Z,10428
2017-08-03T12:24:13.443Z,10616
2017-08-03T12:25:13.470Z,9736
2017-08-03T12:26:13.137Z,6708
2017-08-03T12:27:13.412Z,9924
2017-08-03T12:28:13.460Z,8200
2017-08-03T12:29:13.132Z,8292
2017-08-03T12:30:13.170Z,6976
2017-08-03T12:31:13.068Z,7676
2017-08-03T12:32:13.449Z,7640
2017-08-03T12:33:13.750Z,7596
2017-08-03T12:34:13.729Z,7756
2017-08-03T12:35:13.385Z,7812
2017-08-03T12:36:13.348Z,8052
2017-08-03T12:37:13.354Z,8664
2017-08-03T12:38:13.304Z,8532
2017-08-03T12:39:13.314Z,8912
2017-08-03T12:40:13.284Z,9640
2017-08-03T12:41:12.788Z,8184
2017-08-03T12:42:13.260Z,9608
2017-08-03T12:43:13.615Z,6616
2017-08-03T12:44:12.940Z,10028
2017-08-03T12:45:13.551Z,9656
2017-08-03T12:46:12.957Z,10032
2017-08-03T12:47:12.930Z,10912
2017-08-03T12:48:12.910Z,10252
2017-08-03T12:49:13.227Z,6548
2017-08-03T12:50:13.207Z,11592
2017-08-03T12:51:13.200Z,12192
2017-08-03T12:52:13.500Z,7512
2017-08-03T12:53:13.471Z,8136
2017-08-03T12:54:13.151Z,8876
2017-08-03T12:55:13.149Z,6048
2017-08-03T12:56:13.450Z,10216
2017-08-03T12:57:13.122Z,10152
2017-08-03T12:58:13.429Z,11092
2017-08-03T12:59:13.420Z,11464
2017-08-03T13:00:13.103Z,11004
2017-08-03T13:01:13.409Z,7120
2017-08-03T13:02:13.101Z,11040
2017-08-03T13:03:13.381Z,7892
2017-08-03T13:04:13.191Z,9320
2017-08-03T13:05:12.754Z,8832
2017-08-03T13:06:13.350Z,9348
2017-08-03T13:07:12.741Z,9592
2017-08-03T13:08:13.050Z,8644
2017-08-03T13:09:13.022Z,7952
2017-08-03T13:10:13.024Z,7884
2017-08-03T13:11:13.306Z,8084
2017-08-03T13:12:12.692Z,8296
2017-08-03T13:13:13.290Z,7836
2017-08-03T13:14:13.274Z,7664
2017-08-03T13:15:13.459Z,7704
2017-08-03T13:16:13.259Z,7872
2017-08-03T13:17:12.980Z,7864
2017-08-03T13:18:13.273Z,7968
2017-08-03T13:19:13.290Z,6780
2017-08-03T13:20:12.637Z,8452
2017-08-03T13:21:12.605Z,7856
2017-08-03T13:22:12.899Z,8048
2017-08-03T13:23:13.232Z,8132
2017-08-03T13:24:13.205Z,8320
2017-08-03T13:25:13.203Z,7852
2017-08-03T13:26:13.300Z,6320
2017-08-03T13:27:13.269Z,4696
2017-08-03T13:28:13.217Z,5008
2017-08-03T13:29:13.260Z,6640
2017-08-03T13:30:13.160Z,9040
2017-08-03T13:31:12.840Z,9156
2017-08-03T13:32:12.811Z,7332
2017-08-03T13:33:13.122Z,8816
2017-08-03T13:34:12.820Z,8996
2017-08-03T13:35:13.109Z,8668
2017-08-03T13:36:12.791Z,8736
2017-08-03T13:37:12.780Z,8504
2017-08-03T13:38:12.460Z,7084
2017-08-03T13:39:12.467Z,4388
2017-08-03T13:40:12.445Z,7452
2017-08-03T13:41:13.050Z,7216
2017-08-03T13:42:13.030Z,7736